sensor_id;sensor_type;location;lat;lon;timestamp;pressure;altitude;pressure_sealevel;temperature;humidity
13734;BME280;43298;52.560;13.508;2023-02-11T00:00:39;102318.06;;;3.27;100.00
13734;BME280;43298;52.560;13.508;2023-02-11T00:03:05;102329.16;;;3.29;100.00
13734;BME280;43298;52.560;13.508;2023-02-11T00:05:31;102318.09;;;3.30;100.00
13734;BME280;43298;52.560;13.508;2023-02-11T00:07:57;102314.78;;;3.36;100.00
13734;BME280;43298;52.560;13.508;2023-02-11T00:10:23;102324.16;;;3.38;100.00
13734;BME280;43298;52.560;13.508;2023-02-11T00:12:49;102319.06;;;3.40;100.00
13734;BME280;43298;52.560;13.508;2023-02-11T00:15:14;102325.03;;;3.39;100.00
13734;BME280;43298;52.560;13.508;2023-02-11T00:17:40;102347.31;;;3.49;100.00
13734;BME280;43298;52.560;13.508;2023-02-11T00:20:06;102340.63;;;3.61;100.00
13734;BME280;43298;52.560;13.508;2023-02-11T00:22:32;102341.56;;;3.65;100.00
13734;BME280;43298;52.560;13.508;2023-02-11T00:24:58;102347.63;;;3.73;100.00
13734;BME280;43298;52.560;13.508;2023-02-11T00:27:24;102322.06;;;3.76;100.00
13734;BME280;43298;52.560;13.508;2023-02-11T00:29:50;102316.88;;;3.70;100.00
13734;BME280;43298;52.560;13.508;2023-02-11T00:32:16;102299.88;;;3.72;100.00
13734;BME280;43298;52.560;13.508;2023-02-11T00:34:42;102300.78;;;3.78;100.00
13734;BME280;43298;52.560;13.508;2023-02-11T00:37:07;102308.44;;;3.78;100.00
13734;BME280;43298;52.560;13.508;2023-02-11T00:39:33;102311.06;;;3.81;100.00
13734;BME280;43298;52.560;13.508;2023-02-11T00:41:59;102315.41;;;3.88;100.00
13734;BME280;43298;52.560;13.508;2023-02-11T00:44:25;102306.00;;;3.87;100.00
13734;BME280;43298;52.560;13.508;2023-02-11T00:46:51;102296.66;;;3.91;100.00
13734;BME280;43298;52.560;13.508;2023-02-11T00:49:16;102308.56;;;3.86;100.00
13734;BME280;43298;52.560;13.508;2023-02-11T00:51:42;102310.34;;;3.93;100.00
13734;BME280;43298;52.560;13.508;2023-02-11T00:54:08;102312.94;;;4.00;100.00
13734;BME280;43298;52.560;13.508;2023-02-11T00:56:34;102313.03;;;4.06;100.00
13734;BME280;43298;52.560;13.508;2023-02-11T00:59:00;102300.22;;;4.06;100.00
13734;BME280;43298;52.560;13.508;2023-02-11T01:01:26;102298.47;;;4.01;100.00
13734;BME280;43298;52.560;13.508;2023-02-11T01:03:52;102284.00;;;4.06;100.00
13734;BME280;43298;52.560;13.508;2023-02-11T01:06:18;102266.09;;;4.06;100.00
13734;BME280;43298;52.560;13.508;2023-02-11T01:08:44;102250.72;;;4.04;100.00
13734;BME280;43298;52.560;13.508;2023-02-11T01:11:18;102239.69;;;4.13;100.00
13734;BME280;43298;52.560;13.508;2023-02-11T01:13:46;102235.50;;;4.18;100.00
13734;BME280;43298;52.560;13.508;2023-02-11T01:16:12;102228.66;;;4.18;100.00
13734;BME280;43298;52.560;13.508;2023-02-11T01:18:39;102227.00;;;4.23;100.00
13734;BME280;43298;52.560;13.508;2023-02-11T01:21:06;102228.69;;;4.23;100.00
13734;BME280;43298;52.560;13.508;2023-02-11T01:23:32;102226.25;;;4.33;100.00
13734;BME280;43298;52.560;13.508;2023-02-11T01:25:58;102230.44;;;4.27;100.00
13734;BME280;43298;52.560;13.508;2023-02-11T01:28:27;102237.22;;;4.19;100.00
13734;BME280;43298;52.560;13.508;2023-02-11T01:30:55;102232.16;;;4.25;100.00
13734;BME280;43298;52.560;13.508;2023-02-11T01:33:22;102220.16;;;4.21;100.00
13734;BME280;43298;52.560;13.508;2023-02-11T01:35:48;102209.03;;;4.16;100.00
13734;BME280;43298;52.560;13.508;2023-02-11T01:38:24;102214.97;;;4.13;100.00
13734;BME280;43298;52.560;13.508;2023-02-11T01:41:03;102215.00;;;4.15;100.00
13734;BME280;43298;52.560;13.508;2023-02-11T01:43:37;102213.31;;;4.20;100.00
13734;BME280;43298;52.560;13.508;2023-02-11T01:46:35;102221.84;;;4.17;100.00
13734;BME280;43298;52.560;13.508;2023-02-11T01:49:09;102219.34;;;4.25;100.00
13734;BME280;43298;52.560;13.508;2023-02-11T01:51:39;102213.41;;;4.29;100.00
13734;BME280;43298;52.560;13.508;2023-02-11T01:54:09;102209.09;;;4.25;100.00
13734;BME280;43298;52.560;13.508;2023-02-11T01:56:56;102203.16;;;4.30;100.00
13734;BME280;43298;52.560;13.508;2023-02-11T02:00:11;102209.97;;;4.30;100.00
13734;BME280;43298;52.560;13.508;2023-02-11T02:03:17;102204.06;;;4.35;100.00
13734;BME280;43298;52.560;13.508;2023-02-11T02:06:17;102206.56;;;4.31;100.00
13734;BME280;43298;52.560;13.508;2023-02-11T02:09:01;102212.59;;;4.34;100.00
13734;BME280;43298;52.560;13.508;2023-02-11T02:11:27;102216.81;;;4.32;100.00
13734;BME280;43298;52.560;13.508;2023-02-11T02:13:53;102216.84;;;4.34;100.00
13734;BME280;43298;52.560;13.508;2023-02-11T02:16:20;102204.03;;;4.34;100.00
13734;BME280;43298;52.560;13.508;2023-02-11T02:28:16;102185.38;;;4.48;100.00
13734;BME280;43298;52.560;13.508;2023-02-11T02:34:35;102177.66;;;4.44;100.00
13734;BME280;43298;52.560;13.508;2023-02-11T02:37:25;102181.13;;;4.49;100.00
13734;BME280;43298;52.560;13.508;2023-02-11T02:39:52;102177.72;;;4.53;100.00
13734;BME280;43298;52.560;13.508;2023-02-11T02:42:19;102180.28;;;4.57;100.00
13734;BME280;43298;52.560;13.508;2023-02-11T02:44:49;102162.34;;;4.56;100.00
13734;BME280;43298;52.560;13.508;2023-02-11T02:47:16;102163.22;;;4.56;100.00
13734;BME280;43298;52.560;13.508;2023-02-11T02:49:42;102171.81;;;4.66;100.00
13734;BME280;43298;52.560;13.508;2023-02-11T03:04:23;102151.28;;;4.64;100.00
13734;BME280;43298;52.560;13.508;2023-02-11T03:07:47;102142.78;;;4.64;100.00
13734;BME280;43298;52.560;13.508;2023-02-11T03:10:19;102156.41;;;4.63;100.00
13734;BME280;43298;52.560;13.508;2023-02-11T03:12:47;102153.88;;;4.66;100.00
13734;BME280;43298;52.560;13.508;2023-02-11T03:15:14;102152.22;;;4.71;100.00
13734;BME280;43298;52.560;13.508;2023-02-11T03:17:46;102159.88;;;4.66;100.00
13734;BME280;43298;52.560;13.508;2023-02-11T03:20:15;102147.09;;;4.74;100.00
13734;BME280;43298;52.560;13.508;2023-02-11T03:22:55;102136.84;;;4.71;100.00
13734;BME280;43298;52.560;13.508;2023-02-11T03:25:31;102133.38;;;4.66;100.00
13734;BME280;43298;52.560;13.508;2023-02-11T03:28:31;102135.13;;;4.67;100.00
13734;BME280;43298;52.560;13.508;2023-02-11T03:31:26;102142.78;;;4.62;100.00
13734;BME280;43298;52.560;13.508;2023-02-11T03:34:48;102132.50;;;4.59;100.00
13734;BME280;43298;52.560;13.508;2023-02-11T03:37:19;102141.06;;;4.67;100.00
13734;BME280;43298;52.560;13.508;2023-02-11T03:40:22;102138.53;;;4.72;100.00
13734;BME280;43298;52.560;13.508;2023-02-11T03:43:00;102135.13;;;4.73;100.00
13734;BME280;43298;52.560;13.508;2023-02-11T03:45:27;102144.50;;;4.68;100.00
13734;BME280;43298;52.560;13.508;2023-02-11T03:48:03;102146.22;;;4.73;100.00
13734;BME280;43298;52.560;13.508;2023-02-11T03:50:31;102128.31;;;4.75;100.00
13734;BME280;43298;52.560;13.508;2023-02-11T03:53:00;102133.44;;;4.75;100.00
13734;BME280;43298;52.560;13.508;2023-02-11T03:55:28;102131.72;;;4.80;100.00
13734;BME280;43298;52.560;13.508;2023-02-11T03:57:56;102130.03;;;4.82;100.00
13734;BME280;43298;52.560;13.508;2023-02-11T04:00:34;102124.88;;;4.73;100.00
13734;BME280;43298;52.560;13.508;2023-02-11T04:03:02;102130.88;;;4.76;100.00
13734;BME280;43298;52.560;13.508;2023-02-11T04:05:28;102126.59;;;4.80;100.00
13734;BME280;43298;52.560;13.508;2023-02-11T04:07:54;102142.84;;;4.79;100.00
13734;BME280;43298;52.560;13.508;2023-02-11T04:10:20;102139.41;;;4.75;100.00
13734;BME280;43298;52.560;13.508;2023-02-11T04:12:46;102151.34;;;4.73;100.00
13734;BME280;43298;52.560;13.508;2023-02-11T04:15:11;102143.69;;;4.78;100.00
13734;BME280;43298;52.560;13.508;2023-02-11T04:17:38;102134.28;;;4.80;100.00
13734;BME280;43298;52.560;13.508;2023-02-11T04:20:04;102127.47;;;4.82;100.00
13734;BME280;43298;52.560;13.508;2023-02-11T04:22:30;102133.47;;;4.84;100.00
13734;BME280;43298;52.560;13.508;2023-02-11T04:24:56;102131.75;;;4.83;100.00
13734;BME280;43298;52.560;13.508;2023-02-11T04:27:22;102135.19;;;4.86;100.00
13734;BME280;43298;52.560;13.508;2023-02-11T04:29:48;102136.00;;;4.78;100.00
13734;BME280;43298;52.560;13.508;2023-02-11T04:32:14;102136.88;;;4.83;100.00
13734;BME280;43298;52.560;13.508;2023-02-11T04:34:40;102132.63;;;4.88;100.00
13734;BME280;43298;52.560;13.508;2023-02-11T04:37:06;102126.69;;;4.92;100.00
13734;BME280;43298;52.560;13.508;2023-02-11T04:39:33;102111.28;;;4.92;100.00
13734;BME280;43298;52.560;13.508;2023-02-11T04:41:59;102118.97;;;4.90;100.00
13734;BME280;43298;52.560;13.508;2023-02-11T04:44:25;102106.19;;;4.92;100.00
13734;BME280;43298;52.560;13.508;2023-02-11T04:46:51;102095.91;;;4.89;100.00
13734;BME280;43298;52.560;13.508;2023-02-11T04:49:17;102098.47;;;4.89;100.00
13734;BME280;43298;52.560;13.508;2023-02-11T04:51:43;102102.75;;;4.91;100.00
13734;BME280;43298;52.560;13.508;2023-02-11T04:54:12;102092.50;;;4.93;100.00
13734;BME280;43298;52.560;13.508;2023-02-11T04:56:38;102092.47;;;4.90;100.00
13734;BME280;43298;52.560;13.508;2023-02-11T04:59:05;102088.22;;;4.90;100.00
13734;BME280;43298;52.560;13.508;2023-02-11T05:01:31;102082.22;;;4.85;100.00
13734;BME280;43298;52.560;13.508;2023-02-11T05:03:58;102079.66;;;4.87;100.00
13734;BME280;43298;52.560;13.508;2023-02-11T05:06:24;102083.03;;;4.78;100.00
13734;BME280;43298;52.560;13.508;2023-02-11T05:08:50;102076.25;;;4.83;100.00
13734;BME280;43298;52.560;13.508;2023-02-11T05:11:22;102055.72;;;4.80;100.00
13734;BME280;43298;52.560;13.508;2023-02-11T05:13:48;102060.84;;;4.79;100.00
13734;BME280;43298;52.560;13.508;2023-02-11T05:16:15;102058.28;;;4.79;100.00
13734;BME280;43298;52.560;13.508;2023-02-11T05:18:43;102053.19;;;4.82;100.00
13734;BME280;43298;52.560;13.508;2023-02-11T05:21:13;102042.09;;;4.86;100.00
13734;BME280;43298;52.560;13.508;2023-02-11T05:23:40;102032.69;;;4.85;100.00
13734;BME280;43298;52.560;13.508;2023-02-11T05:26:07;102035.25;;;4.85;100.00
13734;BME280;43298;52.560;13.508;2023-02-11T05:28:33;102028.41;;;4.88;100.00
13734;BME280;43298;52.560;13.508;2023-02-11T05:31:00;102019.88;;;4.86;100.00
13734;BME280;43298;52.560;13.508;2023-02-11T05:33:26;102030.97;;;4.85;100.00
13734;BME280;43298;52.560;13.508;2023-02-11T05:35:51;102032.66;;;4.88;100.00
13734;BME280;43298;52.560;13.508;2023-02-11T05:38:22;102026.72;;;4.92;100.00
13734;BME280;43298;52.560;13.508;2023-02-11T05:40:47;102024.97;;;4.88;100.00
13734;BME280;43298;52.560;13.508;2023-02-11T05:43:13;102019.03;;;4.90;100.00
13734;BME280;43298;52.560;13.508;2023-02-11T05:45:39;102010.50;;;4.96;100.00
13734;BME280;43298;52.560;13.508;2023-02-11T05:48:05;102013.91;;;5.01;100.00
13734;BME280;43298;52.560;13.508;2023-02-11T05:50:30;102008.78;;;5.01;100.00
13734;BME280;43298;52.560;13.508;2023-02-11T05:52:56;102015.63;;;4.99;100.00
13734;BME280;43298;52.560;13.508;2023-02-11T05:55:22;102028.44;;;5.03;100.00
13734;BME280;43298;52.560;13.508;2023-02-11T05:57:48;102025.88;;;5.02;100.00
13734;BME280;43298;52.560;13.508;2023-02-11T06:00:14;102025.88;;;5.05;100.00
13734;BME280;43298;52.560;13.508;2023-02-11T06:02:40;102024.16;;;5.02;100.00
13734;BME280;43298;52.560;13.508;2023-02-11T06:05:06;102025.88;;;5.05;100.00
13734;BME280;43298;52.560;13.508;2023-02-11T06:07:33;102031.88;;;5.04;100.00
13734;BME280;43298;52.560;13.508;2023-02-11T06:09:58;102029.31;;;5.13;100.00
13734;BME280;43298;52.560;13.508;2023-02-11T06:12:24;102031.03;;;5.18;100.00
13734;BME280;43298;52.560;13.508;2023-02-11T06:14:51;102027.59;;;5.13;100.00
13734;BME280;43298;52.560;13.508;2023-02-11T06:17:17;102019.91;;;5.10;100.00
13734;BME280;43298;52.560;13.508;2023-02-11T06:19:42;102020.78;;;5.14;100.00
13734;BME280;43298;52.560;13.508;2023-02-11T06:22:08;102025.06;;;5.19;100.00
13734;BME280;43298;52.560;13.508;2023-02-11T06:24:34;102031.88;;;5.16;100.00
13734;BME280;43298;52.560;13.508;2023-02-11T06:27:03;102018.22;;;5.15;100.00
13734;BME280;43298;52.560;13.508;2023-02-11T06:29:29;102019.91;;;5.18;100.00
13734;BME280;43298;52.560;13.508;2023-02-11T06:31:55;102019.91;;;5.18;100.00
13734;BME280;43298;52.560;13.508;2023-02-11T06:34:21;102020.75;;;5.20;100.00
13734;BME280;43298;52.560;13.508;2023-02-11T06:36:47;102011.38;;;5.20;100.00
13734;BME280;43298;52.560;13.508;2023-02-11T06:39:13;102013.09;;;5.27;100.00
13734;BME280;43298;52.560;13.508;2023-02-11T06:41:39;102011.38;;;5.28;100.00
13734;BME280;43298;52.560;13.508;2023-02-11T06:44:05;102003.69;;;5.28;100.00
13734;BME280;43298;52.560;13.508;2023-02-11T06:46:31;102001.13;;;5.28;100.00
13734;BME280;43298;52.560;13.508;2023-02-11T06:48:57;102016.50;;;5.28;100.00
13734;BME280;43298;52.560;13.508;2023-02-11T06:51:23;102010.53;;;5.32;100.00
13734;BME280;43298;52.560;13.508;2023-02-11T06:53:48;102016.50;;;5.34;100.00
13734;BME280;43298;52.560;13.508;2023-02-11T06:56:21;102006.25;;;5.38;100.00
13734;BME280;43298;52.560;13.508;2023-02-11T06:58:54;102016.50;;;5.37;100.00
13734;BME280;43298;52.560;13.508;2023-02-11T07:01:20;102012.25;;;5.45;100.00
13734;BME280;43298;52.560;13.508;2023-02-11T07:03:46;102013.09;;;5.48;100.00
13734;BME280;43298;52.560;13.508;2023-02-11T07:06:18;102016.50;;;5.47;100.00
13734;BME280;43298;52.560;13.508;2023-02-11T07:08:45;102008.81;;;5.47;100.00
13734;BME280;43298;52.560;13.508;2023-02-11T07:11:25;102001.97;;;5.51;100.00
13734;BME280;43298;52.560;13.508;2023-02-11T07:13:55;102003.66;;;5.53;100.00
13734;BME280;43298;52.560;13.508;2023-02-11T07:16:21;101995.13;;;5.50;100.00
13734;BME280;43298;52.560;13.508;2023-02-11T07:18:48;101997.69;;;5.50;100.00
13734;BME280;43298;52.560;13.508;2023-02-11T07:21:18;101989.13;;;5.54;100.00
13734;BME280;43298;52.560;13.508;2023-02-11T07:23:44;101989.13;;;5.58;100.00
13734;BME280;43298;52.560;13.508;2023-02-11T07:26:14;101989.13;;;5.57;100.00
13734;BME280;43298;52.560;13.508;2023-02-11T07:28:41;101991.66;;;5.66;100.00
13734;BME280;43298;52.560;13.508;2023-02-11T07:31:14;101985.72;;;5.70;100.00
13734;BME280;43298;52.560;13.508;2023-02-11T07:33:40;101987.41;;;5.71;100.00
13734;BME280;43298;52.560;13.508;2023-02-11T07:36:08;101989.09;;;5.76;100.00
13734;BME280;43298;52.560;13.508;2023-02-11T07:38:35;101985.66;;;5.77;100.00
13734;BME280;43298;52.560;13.508;2023-02-11T07:41:07;101987.41;;;5.81;100.00
13734;BME280;43298;52.560;13.508;2023-02-11T07:43:35;101988.25;;;5.85;100.00
13734;BME280;43298;52.560;13.508;2023-02-11T07:46:12;101993.34;;;5.92;100.00
13734;BME280;43298;52.560;13.508;2023-02-11T07:48:38;101996.78;;;5.91;100.00
13734;BME280;43298;52.560;13.508;2023-02-11T07:51:17;101992.50;;;5.98;100.00
13734;BME280;43298;52.560;13.508;2023-02-11T07:53:44;101993.34;;;5.98;100.00
13734;BME280;43298;52.560;13.508;2023-02-11T07:56:12;101988.22;;;6.00;100.00
13734;BME280;43298;52.560;13.508;2023-02-11T07:58:38;101980.50;;;6.04;100.00
13734;BME280;43298;52.560;13.508;2023-02-11T08:01:13;101987.34;;;6.01;100.00
13734;BME280;43298;52.560;13.508;2023-02-11T08:03:40;101988.22;;;6.01;100.00
13734;BME280;43298;52.560;13.508;2023-02-11T08:06:13;102001.91;;;6.02;100.00
13734;BME280;43298;52.560;13.508;2023-02-11T08:08:40;102013.88;;;6.04;100.00
13734;BME280;43298;52.560;13.508;2023-02-11T08:11:16;102012.16;;;6.06;100.00
13734;BME280;43298;52.560;13.508;2023-02-11T08:13:43;102022.41;;;6.08;100.00
13734;BME280;43298;52.560;13.508;2023-02-11T08:16:19;102017.28;;;6.11;100.00
13734;BME280;43298;52.560;13.508;2023-02-11T08:18:46;102019.84;;;6.09;100.00
13734;BME280;43298;52.560;13.508;2023-02-11T08:21:12;102024.16;;;6.09;100.00
13734;BME280;43298;52.560;13.508;2023-02-11T08:23:40;102023.28;;;6.10;100.00
13734;BME280;43298;52.560;13.508;2023-02-11T08:26:13;102018.16;;;6.10;100.00
13734;BME280;43298;52.560;13.508;2023-02-11T08:28:42;102016.41;;;6.10;100.00
13734;BME280;43298;52.560;13.508;2023-02-11T08:31:31;102014.72;;;6.11;100.00
13734;BME280;43298;52.560;13.508;2023-02-11T08:33:58;102025.84;;;6.10;100.00
13734;BME280;43298;52.560;13.508;2023-02-11T08:36:32;102031.81;;;6.10;100.00
13734;BME280;43298;52.560;13.508;2023-02-11T08:39:01;102031.00;;;6.08;100.00
13734;BME280;43298;52.560;13.508;2023-02-11T08:41:28;102038.69;;;6.07;100.00
13734;BME280;43298;52.560;13.508;2023-02-11T08:43:54;102038.69;;;6.08;100.00
13734;BME280;43298;52.560;13.508;2023-02-11T08:46:20;102032.69;;;6.05;100.00
13734;BME280;43298;52.560;13.508;2023-02-11T08:48:46;102020.72;;;6.05;100.00
13734;BME280;43298;52.560;13.508;2023-02-11T08:51:16;102005.31;;;6.04;100.00
13734;BME280;43298;52.560;13.508;2023-02-11T08:53:42;102007.06;;;6.02;100.00
13734;BME280;43298;52.560;13.508;2023-02-11T08:56:10;102002.75;;;6.05;100.00
13734;BME280;43298;52.560;13.508;2023-02-11T08:58:36;101983.91;;;6.12;100.00
13734;BME280;43298;52.560;13.508;2023-02-11T09:01:20;101990.72;;;6.18;100.00
13734;BME280;43298;52.560;13.508;2023-02-11T09:03:46;101989.00;;;6.22;100.00
13734;BME280;43298;52.560;13.508;2023-02-11T09:06:13;101986.44;;;6.18;100.00
13734;BME280;43298;52.560;13.508;2023-02-11T09:08:42;101999.28;;;6.18;100.00
13734;BME280;43298;52.560;13.508;2023-02-11T09:11:09;102007.81;;;6.23;100.00
13734;BME280;43298;52.560;13.508;2023-02-11T09:13:36;102018.09;;;6.28;100.00
13734;BME280;43298;52.560;13.508;2023-02-11T09:16:04;102010.38;;;6.31;100.00
13734;BME280;43298;52.560;13.508;2023-02-11T09:18:30;102000.94;;;6.28;100.00
13734;BME280;43298;52.560;13.508;2023-02-11T09:21:05;101996.66;;;6.29;100.00
13734;BME280;43298;52.560;13.508;2023-02-11T09:23:31;102008.63;;;6.30;100.00
13734;BME280;43298;52.560;13.508;2023-02-11T09:26:08;102022.34;;;6.35;100.00
13734;BME280;43298;52.560;13.508;2023-02-11T09:28:34;102008.63;;;6.36;100.00
13734;BME280;43298;52.560;13.508;2023-02-11T09:31:18;102008.63;;;6.33;100.00
13734;BME280;43298;52.560;13.508;2023-02-11T09:33:47;102020.63;;;6.34;100.00
13734;BME280;43298;52.560;13.508;2023-02-11T09:36:29;102017.19;;;6.35;100.00
13734;BME280;43298;52.560;13.508;2023-02-11T09:38:58;102030.03;;;6.38;100.00
13734;BME280;43298;52.560;13.508;2023-02-11T09:43:59;102035.19;;;6.35;100.00
13734;BME280;43298;52.560;13.508;2023-02-11T09:46:34;102045.47;;;6.35;100.00
13734;BME280;43298;52.560;13.508;2023-02-11T09:49:01;102043.75;;;6.33;100.00
13734;BME280;43298;52.560;13.508;2023-02-11T09:52:04;102030.06;;;6.28;100.00
13734;BME280;43298;52.560;13.508;2023-02-11T09:54:59;102043.75;;;6.33;100.00
13734;BME280;43298;52.560;13.508;2023-02-11T09:57:35;102050.59;;;6.34;100.00
13734;BME280;43298;52.560;13.508;2023-02-11T10:00:44;102042.03;;;6.30;100.00
13734;BME280;43298;52.560;13.508;2023-02-11T10:22:58;102048.84;;;6.37;100.00
13734;BME280;43298;52.560;13.508;2023-02-11T10:25:48;102052.28;;;6.41;100.00
13734;BME280;43298;52.560;13.508;2023-02-11T10:28:21;102054.00;;;6.42;100.00
13734;BME280;43298;52.560;13.508;2023-02-11T10:30:57;102059.13;;;6.37;100.00
13734;BME280;43298;52.560;13.508;2023-02-11T10:36:06;102058.31;;;6.37;100.00
13734;BME280;43298;52.560;13.508;2023-02-11T10:38:33;102046.31;;;6.34;100.00
13734;BME280;43298;52.560;13.508;2023-02-11T10:41:01;102048.84;;;6.39;100.00
13734;BME280;43298;52.560;13.508;2023-02-11T10:43:28;102020.59;;;6.39;100.00
13734;BME280;43298;52.560;13.508;2023-02-11T10:45:55;102015.47;;;6.37;100.00
13734;BME280;43298;52.560;13.508;2023-02-11T10:48:48;102016.31;;;6.39;100.00
13734;BME280;43298;52.560;13.508;2023-02-11T10:51:31;102018.88;;;6.42;100.00
13734;BME280;43298;52.560;13.508;2023-02-11T10:56:44;102019.72;;;6.46;100.00
13734;BME280;43298;52.560;13.508;2023-02-11T10:59:34;102022.28;;;6.47;100.00
13734;BME280;43298;52.560;13.508;2023-02-11T11:05:16;102003.41;;;6.51;100.00
13734;BME280;43298;52.560;13.508;2023-02-11T11:08:03;102005.16;;;6.52;100.00
13734;BME280;43298;52.560;13.508;2023-02-11T11:10:43;102011.09;;;6.59;100.00
13734;BME280;43298;52.560;13.508;2023-02-11T11:13:32;102010.25;;;6.57;100.00
13734;BME280;43298;52.560;13.508;2023-02-11T11:16:16;101999.13;;;6.56;100.00
13734;BME280;43298;52.560;13.508;2023-02-11T11:18:49;101992.25;;;6.55;100.00
13734;BME280;43298;52.560;13.508;2023-02-11T11:21:23;101993.97;;;6.58;100.00
13734;BME280;43298;52.560;13.508;2023-02-11T11:23:58;101981.09;;;6.62;100.00
13734;BME280;43298;52.560;13.508;2023-02-11T11:26:51;101975.94;;;6.62;100.00
13734;BME280;43298;52.560;13.508;2023-02-11T11:32:18;101991.34;;;6.64;100.00
13734;BME280;43298;52.560;13.508;2023-02-11T11:34:51;101999.06;;;6.64;100.00
13734;BME280;43298;52.560;13.508;2023-02-11T11:37:36;102009.34;;;6.67;100.00
13734;BME280;43298;52.560;13.508;2023-02-11T11:42:38;101994.78;;;6.69;100.00
13734;BME280;43298;52.560;13.508;2023-02-11T11:48:07;101993.03;;;6.72;100.00
13734;BME280;43298;52.560;13.508;2023-02-11T11:51:04;102001.59;;;6.76;100.00
13734;BME280;43298;52.560;13.508;2023-02-11T11:53:40;102003.28;;;6.80;100.00
13734;BME280;43298;52.560;13.508;2023-02-11T11:56:15;102006.66;;;6.82;100.00
13734;BME280;43298;52.560;13.508;2023-02-11T11:58:44;102009.22;;;6.86;100.00
13734;BME280;43298;52.560;13.508;2023-02-11T12:01:55;101990.38;;;6.86;100.00
13734;BME280;43298;52.560;13.508;2023-02-11T12:07:47;102015.16;;;6.93;100.00
13734;BME280;43298;52.560;13.508;2023-02-11T12:16:37;102003.16;;;6.99;100.00
13734;BME280;43298;52.560;13.508;2023-02-11T12:22:35;102003.06;;;7.08;100.00
13734;BME280;43298;52.560;13.508;2023-02-11T12:25:28;102017.59;;;7.12;100.00
13734;BME280;43298;52.560;13.508;2023-02-11T12:31:00;102018.47;;;7.14;100.00
13734;BME280;43298;52.560;13.508;2023-02-11T12:56:13;102013.22;;;7.26;100.00
13734;BME280;43298;52.560;13.508;2023-02-11T12:58:40;102018.41;;;7.23;100.00
13734;BME280;43298;52.560;13.508;2023-02-11T13:01:34;102033.88;;;7.20;100.00
13734;BME280;43298;52.560;13.508;2023-02-11T13:04:27;102031.28;;;7.22;100.00
13734;BME280;43298;52.560;13.508;2023-02-11T13:06:59;102039.81;;;7.24;100.00
13734;BME280;43298;52.560;13.508;2023-02-11T13:12:32;102038.09;;;7.26;100.00
13734;BME280;43298;52.560;13.508;2023-02-11T13:15:19;102038.94;;;7.26;100.00
13734;BME280;43298;52.560;13.508;2023-02-11T13:17:57;102044.09;;;7.26;100.00
13734;BME280;43298;52.560;13.508;2023-02-11T13:23:16;102058.69;;;7.26;100.00
13734;BME280;43298;52.560;13.508;2023-02-11T13:26:15;102049.28;;;7.22;100.00
13734;BME280;43298;52.560;13.508;2023-02-11T13:29:09;102062.09;;;7.26;100.00
13734;BME280;43298;52.560;13.508;2023-02-11T13:31:37;102069.81;;;7.26;100.00
13734;BME280;43298;52.560;13.508;2023-02-11T13:37:35;102048.34;;;7.32;100.00
13734;BME280;43298;52.560;13.508;2023-02-11T13:40:21;102060.38;;;7.31;100.00
13734;BME280;43298;52.560;13.508;2023-02-11T13:42:57;102069.78;;;7.31;100.00
13734;BME280;43298;52.560;13.508;2023-02-11T13:45:43;102072.38;;;7.28;100.00
13734;BME280;43298;52.560;13.508;2023-02-11T13:48:32;102074.13;;;7.23;100.00
13734;BME280;43298;52.560;13.508;2023-02-11T13:51:06;102077.56;;;7.23;100.00
13734;BME280;43298;52.560;13.508;2023-02-11T13:53:55;102074.13;;;7.23;100.00
13734;BME280;43298;52.560;13.508;2023-02-11T13:56:40;102076.69;;;7.24;100.00
13734;BME280;43298;52.560;13.508;2023-02-11T14:05:20;102076.63;;;7.33;100.00
13734;BME280;43298;52.560;13.508;2023-02-11T14:08:15;102080.06;;;7.32;100.00
13734;BME280;43298;52.560;13.508;2023-02-11T14:14:18;102074.06;;;7.33;100.00
13734;BME280;43298;52.560;13.508;2023-02-11T14:19:39;102076.63;;;7.33;100.00
13734;BME280;43298;52.560;13.508;2023-02-11T14:25:01;102088.66;;;7.31;100.00
13734;BME280;43298;52.560;13.508;2023-02-11T14:27:36;102087.78;;;7.32;100.00
13734;BME280;43298;52.560;13.508;2023-02-11T14:33:19;102083.50;;;7.33;100.00
13734;BME280;43298;52.560;13.508;2023-02-11T14:41:50;102096.38;;;7.30;100.00
13734;BME280;43298;52.560;13.508;2023-02-11T14:44:21;102095.50;;;7.31;100.00
13734;BME280;43298;52.560;13.508;2023-02-11T14:46:50;102094.63;;;7.38;100.00
13734;BME280;43298;52.560;13.508;2023-02-11T14:49:30;102100.66;;;7.34;100.00
13734;BME280;43298;52.560;13.508;2023-02-11T14:52:22;102112.63;;;7.35;100.00
13734;BME280;43298;52.560;13.508;2023-02-11T14:54:50;102108.38;;;7.32;100.00
13734;BME280;43298;52.560;13.508;2023-02-11T14:57:20;102100.63;;;7.35;100.00
13734;BME280;43298;52.560;13.508;2023-02-11T15:00:04;102115.22;;;7.35;100.00
13734;BME280;43298;52.560;13.508;2023-02-11T15:02:36;102113.50;;;7.35;100.00
13734;BME280;43298;52.560;13.508;2023-02-11T15:07:57;102140.94;;;7.32;100.00
13734;BME280;43298;52.560;13.508;2023-02-11T15:10:42;102134.97;;;7.33;100.00
13734;BME280;43298;52.560;13.508;2023-02-11T15:13:17;102140.94;;;7.38;100.00
13734;BME280;43298;52.560;13.508;2023-02-11T15:15:44;102144.38;;;7.37;100.00
13734;BME280;43298;52.560;13.508;2023-02-11T15:18:20;102152.09;;;7.35;100.00
13734;BME280;43298;52.560;13.508;2023-02-11T15:20:48;102152.09;;;7.35;100.00
13734;BME280;43298;52.560;13.508;2023-02-11T15:23:26;102146.94;;;7.40;100.00
13734;BME280;43298;52.560;13.508;2023-02-11T15:25:53;102158.94;;;7.36;100.00